Terminal Aerodrome Forecast
Issued by NWS

Home | Current Version | Previous Version | Text Only | Print | Product List | Glossary On
Versions: 1 2 3 4 5 6 7 8 9 10 11 12 13 14 15
679
FTUS46 KSGX 251120
TAFSNA
TAF
KSNA 251120Z 2512/2612 VRB04KT P6SM BKN018
      TEMPO 2512/2514 SCT018
     FM251700 VRB05KT P6SM SCT020 SCT150
     FM251900 22008KT P6SM SCT150
     FM260200 VRB05KT P6SM SCT018
     FM260500 VRB04KT P6SM BKN015=

USA.gov is the U.S. government's official web portal to all federal, state and local government web resources and services.